sensor_id;sensor_type;location;lat;lon;timestamp;pressure;altitude;pressure_sealevel;temperature;humidity
49102;BME280;34913;47.520;19.186;2023-06-26T00:02:17;99770.00;;;18.57;87.15
49102;BME280;34913;47.520;19.186;2023-06-26T00:04:43;99766.66;;;18.55;87.47
49102;BME280;34913;47.520;19.186;2023-06-26T00:07:09;99771.19;;;18.54;87.34
49102;BME280;34913;47.520;19.186;2023-06-26T00:09:34;99766.00;;;18.53;86.80
49102;BME280;34913;47.520;19.186;2023-06-26T00:12:00;99772.09;;;18.47;87.16
49102;BME280;34913;47.520;19.186;2023-06-26T00:14:25;99769.50;;;18.38;87.74
49102;BME280;34913;47.520;19.186;2023-06-26T00:16:51;99764.31;;;18.37;88.34
49102;BME280;34913;47.520;19.186;2023-06-26T00:19:17;99771.09;;;18.33;88.85
49102;BME280;34913;47.520;19.186;2023-06-26T00:21:43;99768.28;;;18.26;89.18
49102;BME280;34913;47.520;19.186;2023-06-26T00:24:17;99770.66;;;18.21;89.04
49102;BME280;34913;47.520;19.186;2023-06-26T00:26:46;99758.56;;;18.25;88.78
49102;BME280;34913;47.520;19.186;2023-06-26T00:29:11;99766.25;;;18.28;88.09
49102;BME280;34913;47.520;19.186;2023-06-26T00:31:37;99773.09;;;18.31;87.40
49102;BME280;34913;47.520;19.186;2023-06-26T00:34:03;99771.16;;;18.25;87.88
49102;BME280;34913;47.520;19.186;2023-06-26T00:36:29;99770.81;;;18.05;88.88
49102;BME280;34913;47.520;19.186;2023-06-26T00:38:54;99765.44;;;17.82;90.16
49102;BME280;34913;47.520;19.186;2023-06-26T00:41:20;99768.03;;;17.67;91.05
49102;BME280;34913;47.520;19.186;2023-06-26T00:43:45;99761.88;;;17.58;92.30
49102;BME280;34913;47.520;19.186;2023-06-26T00:46:13;99766.53;;;17.65;91.98
49102;BME280;34913;47.520;19.186;2023-06-26T00:48:40;99770.53;;;17.69;91.69
49102;BME280;34913;47.520;19.186;2023-06-26T00:51:06;99762.63;;;17.75;92.19
49102;BME280;34913;47.520;19.186;2023-06-26T00:53:32;99766.66;;;17.79;91.49
49102;BME280;34913;47.520;19.186;2023-06-26T00:55:58;99765.94;;;17.85;91.29
49102;BME280;34913;47.520;19.186;2023-06-26T00:58:24;99764.63;;;17.81;90.67
49102;BME280;34913;47.520;19.186;2023-06-26T01:00:53;99761.56;;;17.84;90.06
49102;BME280;34913;47.520;19.186;2023-06-26T01:03:23;99759.69;;;17.93;90.32
49102;BME280;34913;47.520;19.186;2023-06-26T01:05:51;99764.19;;;17.93;89.81
49102;BME280;34913;47.520;19.186;2023-06-26T01:08:18;99757.81;;;17.94;89.93
49102;BME280;34913;47.520;19.186;2023-06-26T01:10:44;99763.00;;;17.95;89.72
49102;BME280;34913;47.520;19.186;2023-06-26T01:13:11;99754.53;;;17.83;89.86
49102;BME280;34913;47.520;19.186;2023-06-26T01:15:38;99760.25;;;17.80;90.22
49102;BME280;34913;47.520;19.186;2023-06-26T01:18:05;99760.97;;;17.74;91.00
49102;BME280;34913;47.520;19.186;2023-06-26T01:20:41;99758.47;;;17.73;91.08
49102;BME280;34913;47.520;19.186;2023-06-26T01:23:38;99756.13;;;17.70;90.94
49102;BME280;34913;47.520;19.186;2023-06-26T01:28:42;99761.69;;;17.60;91.34
49102;BME280;34913;47.520;19.186;2023-06-26T01:31:10;99753.06;;;17.50;92.16
49102;BME280;34913;47.520;19.186;2023-06-26T01:33:36;99753.94;;;17.42;92.83
49102;BME280;34913;47.520;19.186;2023-06-26T01:36:02;99744.63;;;17.30;93.66
49102;BME280;34913;47.520;19.186;2023-06-26T01:38:28;99740.78;;;17.24;94.12
49102;BME280;34913;47.520;19.186;2023-06-26T01:40:54;99749.03;;;17.23;94.39
49102;BME280;34913;47.520;19.186;2023-06-26T01:49:40;99741.97;;;17.22;94.53
49102;BME280;34913;47.520;19.186;2023-06-26T01:52:21;99745.47;;;17.30;94.89
49102;BME280;34913;47.520;19.186;2023-06-26T01:57:38;99741.34;;;17.43;94.04
49102;BME280;34913;47.520;19.186;2023-06-26T02:00:05;99746.47;;;17.52;93.24
49102;BME280;34913;47.520;19.186;2023-06-26T02:02:32;99745.13;;;17.56;92.67
49102;BME280;34913;47.520;19.186;2023-06-26T02:04:58;99748.13;;;17.62;92.11
49102;BME280;34913;47.520;19.186;2023-06-26T02:07:23;99741.91;;;17.61;91.66
49102;BME280;34913;47.520;19.186;2023-06-26T02:09:48;99753.88;;;17.50;91.67
49102;BME280;34913;47.520;19.186;2023-06-26T02:12:14;99757.31;;;17.36;92.98
49102;BME280;34913;47.520;19.186;2023-06-26T02:14:39;99752.69;;;17.22;94.14
49102;BME280;34913;47.520;19.186;2023-06-26T02:17:05;99749.53;;;17.18;94.23
49102;BME280;34913;47.520;19.186;2023-06-26T02:19:30;99749.06;;;17.15;93.90
49102;BME280;34913;47.520;19.186;2023-06-26T02:21:56;99740.19;;;17.14;93.59
49102;BME280;34913;47.520;19.186;2023-06-26T02:24:21;99753.66;;;17.29;93.16
49102;BME280;34913;47.520;19.186;2023-06-26T02:26:47;99752.31;;;17.33;92.42
49102;BME280;34913;47.520;19.186;2023-06-26T02:29:14;99755.13;;;17.40;92.36
49102;BME280;34913;47.520;19.186;2023-06-26T02:31:40;99761.28;;;17.48;91.58
49102;BME280;34913;47.520;19.186;2023-06-26T02:34:06;99754.03;;;17.57;90.69
49102;BME280;34913;47.520;19.186;2023-06-26T02:36:31;99760.53;;;17.63;90.37
49102;BME280;34913;47.520;19.186;2023-06-26T02:38:56;99752.47;;;17.63;91.73
49102;BME280;34913;47.520;19.186;2023-06-26T02:41:22;99764.09;;;17.55;91.29
49102;BME280;34913;47.520;19.186;2023-06-26T02:43:47;99761.47;;;17.47;92.51
49102;BME280;34913;47.520;19.186;2023-06-26T02:46:13;99771.53;;;17.45;92.67
49102;BME280;34913;47.520;19.186;2023-06-26T02:48:38;99767.66;;;17.47;92.51
49102;BME280;34913;47.520;19.186;2023-06-26T02:51:03;99777.06;;;17.43;90.51
49102;BME280;34913;47.520;19.186;2023-06-26T02:53:29;99773.16;;;17.54;90.85
49102;BME280;34913;47.520;19.186;2023-06-26T02:55:54;99767.56;;;17.64;90.33
49102;BME280;34913;47.520;19.186;2023-06-26T02:58:20;99766.38;;;17.66;91.17
49102;BME280;34913;47.520;19.186;2023-06-26T03:00:45;99767.63;;;17.55;91.68
49102;BME280;34913;47.520;19.186;2023-06-26T03:03:12;99762.59;;;17.52;91.77
49102;BME280;34913;47.520;19.186;2023-06-26T03:05:38;99767.25;;;17.58;90.17
49102;BME280;34913;47.520;19.186;2023-06-26T03:08:03;99768.41;;;17.64;89.97
49102;BME280;34913;47.520;19.186;2023-06-26T03:10:29;99769.03;;;17.74;89.30
49102;BME280;34913;47.520;19.186;2023-06-26T03:12:54;99779.06;;;17.80;88.87
49102;BME280;34913;47.520;19.186;2023-06-26T03:15:20;99764.44;;;17.83;89.40
49102;BME280;34913;47.520;19.186;2023-06-26T03:17:45;99773.13;;;17.85;89.67
49102;BME280;34913;47.520;19.186;2023-06-26T03:20:11;99774.81;;;17.86;89.50
49102;BME280;34913;47.520;19.186;2023-06-26T03:22:39;99776.84;;;17.84;90.19
49102;BME280;34913;47.520;19.186;2023-06-26T03:25:05;99779.53;;;17.84;90.17
49102;BME280;34913;47.520;19.186;2023-06-26T03:27:30;99782.75;;;17.79;89.92
49102;BME280;34913;47.520;19.186;2023-06-26T03:29:56;99785.25;;;17.81;90.17
49102;BME280;34913;47.520;19.186;2023-06-26T03:32:21;99782.56;;;17.81;89.98
49102;BME280;34913;47.520;19.186;2023-06-26T03:34:47;99779.06;;;17.80;89.17
49102;BME280;34913;47.520;19.186;2023-06-26T03:37:12;99791.78;;;17.87;89.55
49102;BME280;34913;47.520;19.186;2023-06-26T03:39:38;99789.56;;;17.90;89.45
49102;BME280;34913;47.520;19.186;2023-06-26T03:42:03;99781.03;;;17.87;89.08
49102;BME280;34913;47.520;19.186;2023-06-26T03:44:29;99782.50;;;17.89;89.45
49102;BME280;34913;47.520;19.186;2023-06-26T03:46:54;99791.91;;;17.93;90.36
49102;BME280;34913;47.520;19.186;2023-06-26T03:49:19;99780.97;;;17.95;88.80
49102;BME280;34913;47.520;19.186;2023-06-26T03:51:45;99782.25;;;17.99;90.76
49102;BME280;34913;47.520;19.186;2023-06-26T03:54:10;99780.84;;;18.11;88.46
49102;BME280;34913;47.520;19.186;2023-06-26T03:56:36;99787.44;;;18.23;88.32
49102;BME280;34913;47.520;19.186;2023-06-26T03:59:01;99792.75;;;18.31;87.77
49102;BME280;34913;47.520;19.186;2023-06-26T04:01:28;99786.09;;;18.42;88.27
49102;BME280;34913;47.520;19.186;2023-06-26T04:03:53;99783.91;;;18.60;86.68
49102;BME280;34913;47.520;19.186;2023-06-26T04:06:19;99783.66;;;18.70;85.93
49102;BME280;34913;47.520;19.186;2023-06-26T04:08:44;99790.81;;;18.78;85.80
49102;BME280;34913;47.520;19.186;2023-06-26T04:11:10;99793.59;;;18.99;85.18
49102;BME280;34913;47.520;19.186;2023-06-26T04:13:35;99787.63;;;19.18;84.53
49102;BME280;34913;47.520;19.186;2023-06-26T04:16:01;99783.16;;;19.40;81.48
49102;BME280;34913;47.520;19.186;2023-06-26T04:18:26;99788.22;;;19.65;80.53
49102;BME280;34913;47.520;19.186;2023-06-26T04:21:08;99787.59;;;20.27;78.24
49102;BME280;34913;47.520;19.186;2023-06-26T04:23:34;99797.75;;;20.46;75.95
49102;BME280;34913;47.520;19.186;2023-06-26T04:26:00;99789.31;;;20.56;76.80
49102;BME280;34913;47.520;19.186;2023-06-26T04:28:25;99797.25;;;20.99;73.81
49102;BME280;34913;47.520;19.186;2023-06-26T04:30:51;99796.03;;;21.36;72.77
49102;BME280;34913;47.520;19.186;2023-06-26T04:33:16;99789.47;;;21.65;71.29
49102;BME280;34913;47.520;19.186;2023-06-26T04:35:42;99786.41;;;21.94;69.20
49102;BME280;34913;47.520;19.186;2023-06-26T04:38:10;99793.09;;;22.12;69.06
49102;BME280;34913;47.520;19.186;2023-06-26T04:40:35;99798.53;;;22.25;67.66
49102;BME280;34913;47.520;19.186;2023-06-26T04:43:01;99801.25;;;22.45;67.70
49102;BME280;34913;47.520;19.186;2023-06-26T04:45:26;99809.56;;;22.70;66.18
49102;BME280;34913;47.520;19.186;2023-06-26T04:47:51;99810.00;;;22.60;66.48
49102;BME280;34913;47.520;19.186;2023-06-26T04:50:17;99806.22;;;22.41;67.15
49102;BME280;34913;47.520;19.186;2023-06-26T04:52:44;99817.66;;;22.70;66.11
49102;BME280;34913;47.520;19.186;2023-06-26T04:55:09;99810.19;;;22.85;65.51
49102;BME280;34913;47.520;19.186;2023-06-26T04:57:35;99806.09;;;23.27;64.33
49102;BME280;34913;47.520;19.186;2023-06-26T05:00:01;99808.91;;;23.52;62.79
49102;BME280;34913;47.520;19.186;2023-06-26T05:02:26;99805.56;;;23.70;62.09
49102;BME280;34913;47.520;19.186;2023-06-26T05:04:52;99802.53;;;23.85;61.75
49102;BME280;34913;47.520;19.186;2023-06-26T05:07:17;99803.81;;;24.14;59.99
49102;BME280;34913;47.520;19.186;2023-06-26T05:09:43;99810.31;;;24.38;60.65
49102;BME280;34913;47.520;19.186;2023-06-26T05:12:08;99808.09;;;23.97;61.18
49102;BME280;34913;47.520;19.186;2023-06-26T05:14:34;99808.22;;;24.08;61.97
49102;BME280;34913;47.520;19.186;2023-06-26T05:16:59;99809.75;;;23.98;61.34
49102;BME280;34913;47.520;19.186;2023-06-26T05:19:24;99812.13;;;24.19;60.22
49102;BME280;34913;47.520;19.186;2023-06-26T05:21:51;99810.34;;;24.31;60.69
49102;BME280;34913;47.520;19.186;2023-06-26T05:24:17;99809.63;;;24.17;59.52
49102;BME280;34913;47.520;19.186;2023-06-26T05:26:44;99814.19;;;24.48;58.39
49102;BME280;34913;47.520;19.186;2023-06-26T05:29:09;99807.03;;;24.79;57.54
49102;BME280;34913;47.520;19.186;2023-06-26T05:31:40;99808.28;;;25.20;56.20
49102;BME280;34913;47.520;19.186;2023-06-26T05:34:06;99805.75;;;25.07;57.41
49102;BME280;34913;47.520;19.186;2023-06-26T05:36:33;99810.03;;;24.71;57.05
49102;BME280;34913;47.520;19.186;2023-06-26T05:38:59;99814.00;;;24.18;59.56
49102;BME280;34913;47.520;19.186;2023-06-26T05:41:25;99813.78;;;23.88;59.05
49102;BME280;34913;47.520;19.186;2023-06-26T05:43:50;99812.91;;;24.26;59.26
49102;BME280;34913;47.520;19.186;2023-06-26T05:46:16;99809.19;;;24.70;57.86
49102;BME280;34913;47.520;19.186;2023-06-26T05:48:41;99813.06;;;25.24;56.95
49102;BME280;34913;47.520;19.186;2023-06-26T05:51:07;99803.88;;;25.55;55.71
49102;BME280;34913;47.520;19.186;2023-06-26T05:53:33;99809.78;;;25.52;56.49
49102;BME280;34913;47.520;19.186;2023-06-26T05:55:58;99810.34;;;25.24;58.02
49102;BME280;34913;47.520;19.186;2023-06-26T05:58:26;99806.56;;;25.44;57.63
49102;BME280;34913;47.520;19.186;2023-06-26T06:00:54;99809.34;;;25.37;55.27
49102;BME280;34913;47.520;19.186;2023-06-26T06:03:20;99818.03;;;25.46;56.70
49102;BME280;34913;47.520;19.186;2023-06-26T06:05:46;99809.31;;;25.74;55.36
49102;BME280;34913;47.520;19.186;2023-06-26T06:08:11;99802.31;;;25.96;54.32
49102;BME280;34913;47.520;19.186;2023-06-26T06:10:37;99801.72;;;25.94;54.45
49102;BME280;34913;47.520;19.186;2023-06-26T06:13:03;99802.13;;;26.21;54.37
49102;BME280;34913;47.520;19.186;2023-06-26T06:15:29;99801.03;;;26.76;51.98
49102;BME280;34913;47.520;19.186;2023-06-26T06:17:54;99792.88;;;27.11;51.13
49102;BME280;34913;47.520;19.186;2023-06-26T06:20:20;99797.00;;;27.13;50.62
49102;BME280;34913;47.520;19.186;2023-06-26T06:22:45;99793.16;;;27.38;49.50
49102;BME280;34913;47.520;19.186;2023-06-26T06:25:11;99800.38;;;27.32;49.99
49102;BME280;34913;47.520;19.186;2023-06-26T06:27:36;99800.13;;;27.45;49.71
49102;BME280;34913;47.520;19.186;2023-06-26T06:30:02;99792.91;;;27.39;50.18
49102;BME280;34913;47.520;19.186;2023-06-26T06:32:28;99797.25;;;27.52;50.32
49102;BME280;34913;47.520;19.186;2023-06-26T06:34:53;99794.66;;;27.57;48.30
49102;BME280;34913;47.520;19.186;2023-06-26T06:37:19;99801.63;;;27.93;48.14
49102;BME280;34913;47.520;19.186;2023-06-26T06:39:44;99794.03;;;28.12;46.28
49102;BME280;34913;47.520;19.186;2023-06-26T06:42:09;99796.16;;;28.39;44.65
49102;BME280;34913;47.520;19.186;2023-06-26T06:44:35;99801.28;;;28.69;42.71
49102;BME280;34913;47.520;19.186;2023-06-26T06:47:01;99786.09;;;28.78;44.96
49102;BME280;34913;47.520;19.186;2023-06-26T06:49:26;99790.97;;;29.31;44.12
49102;BME280;34913;47.520;19.186;2023-06-26T06:51:52;99797.63;;;29.40;42.28
49102;BME280;34913;47.520;19.186;2023-06-26T06:54:17;99797.69;;;29.24;42.59
49102;BME280;34913;47.520;19.186;2023-06-26T06:56:43;99797.91;;;29.39;42.13
49102;BME280;34913;47.520;19.186;2023-06-26T06:59:08;99806.97;;;29.66;40.58
49102;BME280;34913;47.520;19.186;2023-06-26T07:01:34;99793.19;;;29.83;39.50
49102;BME280;34913;47.520;19.186;2023-06-26T07:03:59;99793.47;;;30.09;38.68
49102;BME280;34913;47.520;19.186;2023-06-26T07:06:25;99803.25;;;30.26;38.30
49102;BME280;34913;47.520;19.186;2023-06-26T07:08:50;99800.09;;;30.13;39.60
49102;BME280;34913;47.520;19.186;2023-06-26T07:11:16;99799.16;;;30.02;39.96
49102;BME280;34913;47.520;19.186;2023-06-26T07:13:42;99803.66;;;30.13;39.04
49102;BME280;34913;47.520;19.186;2023-06-26T07:16:07;99800.16;;;30.18;39.76
49102;BME280;34913;47.520;19.186;2023-06-26T07:18:37;99798.94;;;30.36;39.63
49102;BME280;34913;47.520;19.186;2023-06-26T07:21:02;99797.03;;;30.41;39.15
49102;BME280;34913;47.520;19.186;2023-06-26T07:23:28;99802.41;;;30.58;37.06
49102;BME280;34913;47.520;19.186;2023-06-26T07:25:53;99801.25;;;30.54;38.74
49102;BME280;34913;47.520;19.186;2023-06-26T07:28:19;99786.69;;;30.48;38.90
49102;BME280;34913;47.520;19.186;2023-06-26T07:30:44;99802.13;;;30.65;37.44
49102;BME280;34913;47.520;19.186;2023-06-26T07:33:09;99798.47;;;30.86;36.80
49102;BME280;34913;47.520;19.186;2023-06-26T07:35:35;99794.66;;;30.87;38.18
49102;BME280;34913;47.520;19.186;2023-06-26T07:38:00;99793.81;;;30.81;36.80
49102;BME280;34913;47.520;19.186;2023-06-26T07:40:26;99802.72;;;31.09;35.80
49102;BME280;34913;47.520;19.186;2023-06-26T07:42:51;99795.88;;;31.06;35.56
49102;BME280;34913;47.520;19.186;2023-06-26T07:45:19;99794.63;;;31.29;34.31
49102;BME280;34913;47.520;19.186;2023-06-26T07:47:45;99799.78;;;31.21;35.19
49102;BME280;34913;47.520;19.186;2023-06-26T07:50:11;99807.44;;;31.13;36.30
49102;BME280;34913;47.520;19.186;2023-06-26T07:52:37;99803.59;;;31.20;36.07
49102;BME280;34913;47.520;19.186;2023-06-26T07:55:02;99803.22;;;31.01;35.12
49102;BME280;34913;47.520;19.186;2023-06-26T07:57:29;99802.50;;;30.68;37.35
49102;BME280;34913;47.520;19.186;2023-06-26T07:59:54;99803.19;;;30.91;36.12
49102;BME280;34913;47.520;19.186;2023-06-26T08:02:21;99808.97;;;30.99;35.94
49102;BME280;34913;47.520;19.186;2023-06-26T08:04:47;99808.34;;;30.87;35.39
49102;BME280;34913;47.520;19.186;2023-06-26T08:07:12;99808.09;;;30.89;35.00
49102;BME280;34913;47.520;19.186;2023-06-26T08:09:39;99802.91;;;30.92;38.09
49102;BME280;34913;47.520;19.186;2023-06-26T08:12:04;99808.53;;;31.12;36.63
49102;BME280;34913;47.520;19.186;2023-06-26T08:14:30;99803.31;;;31.16;37.90
49102;BME280;34913;47.520;19.186;2023-06-26T08:16:56;99800.16;;;31.39;36.40
49102;BME280;34913;47.520;19.186;2023-06-26T08:19:22;99802.44;;;31.10;34.83
49102;BME280;34913;47.520;19.186;2023-06-26T08:21:48;99803.97;;;30.86;35.53
49102;BME280;34913;47.520;19.186;2023-06-26T08:24:13;99808.47;;;31.07;36.22
49102;BME280;34913;47.520;19.186;2023-06-26T08:26:41;99799.72;;;31.05;35.80
49102;BME280;34913;47.520;19.186;2023-06-26T08:29:06;99802.41;;;30.63;36.48
49102;BME280;34913;47.520;19.186;2023-06-26T08:31:35;99803.22;;;31.01;38.32
49102;BME280;34913;47.520;19.186;2023-06-26T08:34:02;99799.53;;;31.22;36.46
49102;BME280;34913;47.520;19.186;2023-06-26T08:36:28;99797.38;;;31.34;36.87
49102;BME280;34913;47.520;19.186;2023-06-26T08:38:54;99799.56;;;31.32;37.17
49102;BME280;34913;47.520;19.186;2023-06-26T08:41:19;99796.25;;;31.25;37.26
49102;BME280;34913;47.520;19.186;2023-06-26T08:43:45;99804.53;;;30.51;37.62
49102;BME280;34913;47.520;19.186;2023-06-26T08:46:11;99792.00;;;30.60;37.12
49102;BME280;34913;47.520;19.186;2023-06-26T08:48:37;99792.91;;;30.71;37.24
49102;BME280;34913;47.520;19.186;2023-06-26T08:51:12;99796.09;;;30.63;36.56
49102;BME280;34913;47.520;19.186;2023-06-26T08:56:22;99799.22;;;30.71;37.67
49102;BME280;34913;47.520;19.186;2023-06-26T08:58:49;99802.03;;;30.87;36.14
49102;BME280;34913;47.520;19.186;2023-06-26T09:01:15;99794.88;;;30.43;36.25
49102;BME280;34913;47.520;19.186;2023-06-26T09:03:40;99794.03;;;29.84;38.55
49102;BME280;34913;47.520;19.186;2023-06-26T09:06:09;99798.75;;;29.23;38.11
49102;BME280;34913;47.520;19.186;2023-06-26T09:08:35;99793.53;;;28.82;39.83
49102;BME280;34913;47.520;19.186;2023-06-26T09:11:00;99794.75;;;28.53;39.54
49102;BME280;34913;47.520;19.186;2023-06-26T09:13:28;99789.31;;;28.07;41.56
49102;BME280;34913;47.520;19.186;2023-06-26T09:15:55;99787.66;;;27.90;41.89
49102;BME280;34913;47.520;19.186;2023-06-26T09:18:21;99793.91;;;27.73;42.08
49102;BME280;34913;47.520;19.186;2023-06-26T09:20:47;99791.28;;;27.95;42.86
49102;BME280;34913;47.520;19.186;2023-06-26T09:23:13;99794.50;;;28.54;41.63
49102;BME280;34913;47.520;19.186;2023-06-26T09:25:39;99795.25;;;29.05;40.30
49102;BME280;34913;47.520;19.186;2023-06-26T09:28:05;99789.34;;;29.35;40.44
49102;BME280;34913;47.520;19.186;2023-06-26T09:30:35;99784.00;;;29.67;39.58
49102;BME280;34913;47.520;19.186;2023-06-26T09:33:17;99788.06;;;29.87;38.95
49102;BME280;34913;47.520;19.186;2023-06-26T09:35:43;99788.06;;;30.14;36.19
49102;BME280;34913;47.520;19.186;2023-06-26T09:38:09;99785.56;;;30.44;37.26
49102;BME280;34913;47.520;19.186;2023-06-26T09:40:35;99779.97;;;30.29;35.99
49102;BME280;34913;47.520;19.186;2023-06-26T09:43:09;99785.97;;;30.63;37.70
49102;BME280;34913;47.520;19.186;2023-06-26T09:45:35;99781.50;;;30.84;36.88
49102;BME280;34913;47.520;19.186;2023-06-26T09:48:03;99778.56;;;30.58;35.50
49102;BME280;34913;47.520;19.186;2023-06-26T09:50:32;99775.41;;;30.77;35.71
49102;BME280;34913;47.520;19.186;2023-06-26T09:53:07;99780.34;;;30.80;33.80
49102;BME280;34913;47.520;19.186;2023-06-26T09:55:35;99776.78;;;30.79;35.92
49102;BME280;34913;47.520;19.186;2023-06-26T09:58:04;99774.38;;;30.83;35.78
49102;BME280;34913;47.520;19.186;2023-06-26T10:00:31;99772.78;;;30.55;37.14
49102;BME280;34913;47.520;19.186;2023-06-26T10:03:00;99775.97;;;29.83;39.60
49102;BME280;34913;47.520;19.186;2023-06-26T10:05:26;99767.88;;;30.25;38.06
49102;BME280;34913;47.520;19.186;2023-06-26T10:07:53;99763.75;;;30.22;35.89
49102;BME280;34913;47.520;19.186;2023-06-26T10:10:19;99766.97;;;30.14;36.99
49102;BME280;34913;47.520;19.186;2023-06-26T10:12:48;99762.31;;;30.47;36.87
49102;BME280;34913;47.520;19.186;2023-06-26T10:15:14;99763.56;;;30.66;37.89
49102;BME280;34913;47.520;19.186;2023-06-26T10:17:43;99769.25;;;30.97;37.88
49102;BME280;34913;47.520;19.186;2023-06-26T10:20:10;99761.34;;;31.10;36.00
49102;BME280;34913;47.520;19.186;2023-06-26T10:22:41;99753.47;;;31.24;38.25
49102;BME280;34913;47.520;19.186;2023-06-26T10:25:07;99745.81;;;31.31;36.60
49102;BME280;34913;47.520;19.186;2023-06-26T10:27:36;99752.13;;;31.32;37.94
49102;BME280;34913;47.520;19.186;2023-06-26T10:30:08;99754.59;;;31.28;36.37
49102;BME280;34913;47.520;19.186;2023-06-26T10:32:35;99753.56;;;31.60;35.01
49102;BME280;34913;47.520;19.186;2023-06-26T10:35:02;99751.94;;;31.54;34.64
49102;BME280;34913;47.520;19.186;2023-06-26T10:37:43;99748.44;;;31.06;36.33
49102;BME280;34913;47.520;19.186;2023-06-26T10:40:09;99745.25;;;31.24;35.64
49102;BME280;34913;47.520;19.186;2023-06-26T10:42:37;99750.41;;;31.16;35.09
49102;BME280;34913;47.520;19.186;2023-06-26T10:45:17;99746.22;;;31.03;35.76
49102;BME280;34913;47.520;19.186;2023-06-26T10:47:47;99748.16;;;30.60;35.92
49102;BME280;34913;47.520;19.186;2023-06-26T10:50:23;99754.28;;;30.67;34.07
49102;BME280;34913;47.520;19.186;2023-06-26T10:53:09;99752.81;;;30.65;33.37
49102;BME280;34913;47.520;19.186;2023-06-26T10:55:35;99750.47;;;30.78;33.27
49102;BME280;34913;47.520;19.186;2023-06-26T10:58:01;99758.50;;;30.90;33.67
49102;BME280;34913;47.520;19.186;2023-06-26T11:00:27;99747.06;;;30.24;34.59
49102;BME280;34913;47.520;19.186;2023-06-26T11:02:53;99746.88;;;30.03;36.31
49102;BME280;34913;47.520;19.186;2023-06-26T11:05:32;99748.59;;;30.42;36.95
49102;BME280;34913;47.520;19.186;2023-06-26T11:08:07;99750.34;;;30.63;36.49
49102;BME280;34913;47.520;19.186;2023-06-26T11:10:53;99743.81;;;31.17;38.43
49102;BME280;34913;47.520;19.186;2023-06-26T11:13:19;99743.81;;;31.17;34.96
49102;BME280;34913;47.520;19.186;2023-06-26T11:15:46;99747.66;;;31.16;35.94
49102;BME280;34913;47.520;19.186;2023-06-26T11:18:13;99745.81;;;31.31;37.21
49102;BME280;34913;47.520;19.186;2023-06-26T11:20:39;99750.56;;;31.56;35.01
49102;BME280;34913;47.520;19.186;2023-06-26T11:23:04;99743.88;;;31.27;36.55
49102;BME280;34913;47.520;19.186;2023-06-26T11:25:37;99734.63;;;31.48;35.74
49102;BME280;34913;47.520;19.186;2023-06-26T11:28:05;99739.00;;;31.39;34.58
49102;BME280;34913;47.520;19.186;2023-06-26T11:30:34;99730.75;;;31.34;34.07
49102;BME280;34913;47.520;19.186;2023-06-26T11:33:09;99730.88;;;30.97;35.62
49102;BME280;34913;47.520;19.186;2023-06-26T11:35:35;99734.16;;;30.99;34.46
49102;BME280;34913;47.520;19.186;2023-06-26T11:38:02;99736.06;;;30.98;34.13
49102;BME280;34913;47.520;19.186;2023-06-26T11:40:34;99725.13;;;31.03;33.89
49102;BME280;34913;47.520;19.186;2023-06-26T11:43:01;99729.47;;;30.94;37.38
49102;BME280;34913;47.520;19.186;2023-06-26T11:45:30;99729.47;;;30.94;33.64
49102;BME280;34913;47.520;19.186;2023-06-26T11:47:57;99717.97;;;31.02;33.94
49102;BME280;34913;47.520;19.186;2023-06-26T11:50:23;99726.25;;;30.60;35.67
49102;BME280;34913;47.520;19.186;2023-06-26T11:52:56;99721.34;;;30.25;35.68
49102;BME280;34913;47.520;19.186;2023-06-26T11:55:25;99719.75;;;30.71;35.80
49102;BME280;34913;47.520;19.186;2023-06-26T11:57:56;99714.97;;;30.99;36.73
49102;BME280;34913;47.520;19.186;2023-06-26T12:00:22;99712.16;;;30.83;36.03
49102;BME280;34913;47.520;19.186;2023-06-26T12:02:48;99710.00;;;30.48;35.78
49102;BME280;34913;47.520;19.186;2023-06-26T12:05:15;99717.81;;;29.65;37.00
49102;BME280;34913;47.520;19.186;2023-06-26T12:07:46;99711.00;;;29.46;37.60
49102;BME280;34913;47.520;19.186;2023-06-26T12:10:12;99714.19;;;29.38;37.80
49102;BME280;34913;47.520;19.186;2023-06-26T12:12:39;99713.72;;;29.19;37.59
49102;BME280;34913;47.520;19.186;2023-06-26T12:15:06;99715.56;;;29.13;38.78
49102;BME280;34913;47.520;19.186;2023-06-26T12:17:32;99714.47;;;29.14;39.01
49102;BME280;34913;47.520;19.186;2023-06-26T12:19:58;99713.56;;;28.87;38.47
49102;BME280;34913;47.520;19.186;2023-06-26T12:22:23;99711.28;;;28.79;38.84
49102;BME280;34913;47.520;19.186;2023-06-26T12:24:48;99710.56;;;28.88;39.64
49102;BME280;34913;47.520;19.186;2023-06-26T12:27:16;99707.06;;;28.71;40.40
49102;BME280;34913;47.520;19.186;2023-06-26T12:29:51;99711.31;;;28.62;40.55
49102;BME280;34913;47.520;19.186;2023-06-26T12:32:17;99712.34;;;28.39;40.40
49102;BME280;34913;47.520;19.186;2023-06-26T12:34:47;99713.44;;;28.21;41.29
49102;BME280;34913;47.520;19.186;2023-06-26T12:37:13;99708.28;;;28.08;41.30
49102;BME280;34913;47.520;19.186;2023-06-26T12:42:15;99713.75;;;28.42;40.37
49102;BME280;34913;47.520;19.186;2023-06-26T12:44:41;99704.91;;;28.73;40.41
49102;BME280;34913;47.520;19.186;2023-06-26T12:47:06;99705.78;;;28.96;38.75
49102;BME280;34913;47.520;19.186;2023-06-26T12:49:40;99709.91;;;29.20;39.94
49102;BME280;34913;47.520;19.186;2023-06-26T12:52:11;99704.31;;;29.32;38.62
49102;BME280;34913;47.520;19.186;2023-06-26T12:54:38;99699.75;;;29.42;38.82
49102;BME280;34913;47.520;19.186;2023-06-26T12:57:04;99698.84;;;29.32;37.74
49102;BME280;34913;47.520;19.186;2023-06-26T12:59:31;99698.47;;;29.23;37.45
49102;BME280;34913;47.520;19.186;2023-06-26T13:01:57;99694.41;;;29.53;38.42
49102;BME280;34913;47.520;19.186;2023-06-26T13:04:23;99690.53;;;29.75;38.10
49102;BME280;34913;47.520;19.186;2023-06-26T13:06:49;99689.78;;;29.85;38.05